Munson Island, Florida
Current Conditions -  °F | °C
As of 4:53 AM on Monday 22 Dec 2014 (Local Time) from KNQX Reporting Station
Broken Clouds Broken Clouds  
Wind Chill: 74°   Ceiling: 10000
Heat Index: 74°   Visibility: 10mi
Dew Point: 70°   Wind: 8mph
Humidity: 87%   Direction: 120°ESE
Pressure: 29.99"   Gusts: NA
Location:  24.5796°N, 81.6849°W
Report Text: KNQX 220953Z AUTO 12007KT 10SM BKN100 23/21 A2999 RMK AO2 SLP153 T02330211
Loading
Personal Weather Stations






























Interactive Weather Map New forecast layout! Learn more

10-Day Weather Forecast

Advertisements
Track Severe Weather on mobile